Time;durP1;ratioP1;P1;durP2;ratioP2;P2;SDS_P1;SDS_P2;PMS_P1;PMS_P2;Temp;Humidity;BMP_temperature;BMP_pressure;BME280_temperature;BME280_humidity;BME280_pressure;Samples;Min_cycle;Max_cycle;Signal;HPM_P1;HPM_P2
2022/01/07 00:02:12;;;;;;;26.73;8.17;;;;;;;-2.50;75.76;99455.69;1672405;85;21043;-41
2022/01/07 00:04:38;;;;;;;21.90;7.60;;;;;;;-2.47;75.87;99464.70;1672121;86;21178;-41
2022/01/07 00:07:05;;;;;;;19.95;8.43;;;;;;;-2.47;75.72;99460.84;1672188;86;21003;-37
2022/01/07 00:09:31;;;;;;;18.67;6.67;;;;;;;-2.45;75.58;99473.28;1672247;86;21000;-40
2022/01/07 00:11:57;;;;;;;21.95;7.70;;;;;;;-2.42;75.62;99468.55;1672131;84;21007;-41
2022/01/07 00:14:23;;;;;;;18.90;7.45;;;;;;;-2.52;75.31;99472.41;1672157;86;21059;-37
2022/01/07 00:16:49;;;;;;;18.65;7.10;;;;;;;-2.48;75.37;99475.85;1672112;84;20968;-39
2022/01/07 00:19:15;;;;;;;15.83;6.75;;;;;;;-2.45;75.58;99468.14;1672201;86;21759;-40
2022/01/07 00:21:41;;;;;;;18.90;7.15;;;;;;;-2.47;75.51;99476.30;1672140;84;21489;-41
2022/01/07 00:24:08;;;;;;;16.12;6.97;;;;;;;-2.50;75.49;99474.99;1672088;86;21187;-39
2022/01/07 00:26:34;;;;;;;13.38;6.10;;;;;;;-2.44;75.35;99482.71;1672102;84;21051;-41
2022/01/07 00:29:00;;;;;;;17.00;6.00;;;;;;;-2.46;75.25;99487.01;1672180;86;21485;-41
2022/01/07 00:31:25;;;;;;;18.67;6.20;;;;;;;-2.47;75.21;99495.61;1672149;86;21457;-40
2022/01/07 00:33:51;;;;;;;16.25;6.10;;;;;;;-2.49;75.16;99486.14;1672111;86;21587;-37
2022/01/07 00:36:17;;;;;;;16.20;5.58;;;;;;;-2.48;75.10;99482.28;1672039;86;21008;-42
2022/01/07 00:38:43;;;;;;;14.55;6.08;;;;;;;-2.54;75.12;99481.01;1672127;86;21039;-39
2022/01/07 00:41:09;;;;;;;13.25;5.65;;;;;;;-2.51;75.18;99484.45;1672049;86;20976;-40
2022/01/07 00:43:35;;;;;;;15.83;5.97;;;;;;;-2.52;75.01;99489.59;1672119;85;20976;-40
2022/01/07 00:46:00;;;;;;;17.82;6.92;;;;;;;-2.51;75.09;99490.00;1672091;86;20972;-41
2022/01/07 00:48:26;;;;;;;16.77;5.85;;;;;;;-2.53;74.79;99484.00;1672122;86;20999;-40
2022/01/07 00:50:52;;;;;;;13.55;5.83;;;;;;;-2.53;74.79;99484.00;1687224;84;21001;-38
2022/01/07 00:53:18;;;;;;;16.12;6.62;;;;;;;-2.55;74.87;99485.31;1698718;84;20980;-38
2022/01/07 00:55:44;;;;;;;15.28;5.90;;;;;;;-2.53;75.21;99481.42;1698666;84;21531;-42
2022/01/07 00:58:10;;;;;;;19.25;7.53;;;;;;;-2.51;75.13;99487.42;1698756;84;21470;-38
2022/01/07 01:00:37;;;;;;;18.60;6.28;;;;;;;-2.50;75.01;99491.73;1698791;84;21016;-39
2022/01/07 01:03:03;;;;;;;17.92;6.58;;;;;;;-2.50;75.03;99491.73;1698749;84;21020;-41
2022/01/07 01:05:30;;;;;;;20.00;6.90;;;;;;;-2.49;74.91;99492.17;1698439;84;20988;-41
2022/01/07 01:07:56;;;;;;;17.93;6.63;;;;;;;-2.48;74.97;99492.59;1698918;84;21473;-40
2022/01/07 01:10:25;;;;;;;15.80;6.28;;;;;;;-2.46;75.16;99493.45;1698738;84;21055;-40
2022/01/07 01:12:52;;;;;;;21.48;6.90;;;;;;;-2.47;75.06;99490.45;1698701;84;21477;-39
2022/01/07 01:15:23;;;;;;;23.40;7.70;;;;;;;-2.51;75.45;99481.88;1698851;84;20976;-41
2022/01/07 01:17:51;;;;;;;14.25;7.05;;;;;;;-2.50;75.44;99486.58;1698692;84;21489;-42
2022/01/07 01:20:19;;;;;;;17.57;7.62;;;;;;;-2.51;75.48;99486.14;1698129;84;21482;-39
2022/01/07 01:22:45;;;;;;;24.25;7.33;;;;;;;-2.51;75.26;99486.14;1698643;84;21020;-41
2022/01/07 01:25:12;;;;;;;20.62;6.85;;;;;;;-2.53;75.43;99487.86;1698648;84;21015;-40
2022/01/07 01:27:40;;;;;;;21.97;8.13;;;;;;;-2.56;75.35;99486.59;1698829;84;21465;-39
2022/01/07 01:30:08;;;;;;;;;;;;;;;-2.59;75.22;99484.00;1701253;84;21016;-42
2022/01/07 01:32:35;;;;;;;19.20;8.30;;;;;;;-2.62;75.27;99483.59;1698691;84;20152;-38
2022/01/07 01:35:02;;;;;;;24.30;8.40;;;;;;;-2.62;75.57;99488.73;1698646;84;20960;-40
2022/01/07 01:37:29;;;;;;;22.22;8.83;;;;;;;-2.62;75.88;99486.56;1698904;84;20981;-38
2022/01/07 01:39:55;;;;;;;;;;;;;;;-2.65;75.28;99490.45;1701284;84;21028;-41
2022/01/07 01:42:21;;;;;;;31.55;9.83;;;;;;;-2.68;75.36;99481.42;1698645;84;20175;-39
2022/01/07 01:44:46;;;;;;;23.77;8.88;;;;;;;-2.65;75.49;99484.86;1698657;84;20992;-41
2022/01/07 01:47:12;;;;;;;22.13;9.00;;;;;;;-2.64;75.49;99483.13;1698641;84;21016;-38
2022/01/07 01:49:38;;;;;;;27.40;9.38;;;;;;;-2.66;75.72;99483.56;1698610;84;20962;-42
2022/01/07 01:52:05;;;;;;;24.02;8.93;;;;;;;-2.68;75.66;99478.84;1705549;84;21066;-39
2022/01/07 01:54:31;;;;;;;25.47;8.90;;;;;;;-2.70;75.58;99482.27;1706464;84;21499;-40
2022/01/07 01:56:57;;;;;;;25.97;8.38;;;;;;;-2.74;75.74;99481.84;1706222;84;21039;-41
2022/01/07 01:59:29;;;;;;;28.92;10.03;;;;;;;-2.73;75.70;99488.72;1706155;84;20998;-40
2022/01/07 02:01:55;;;;;;;26.50;10.00;;;;;;;-2.74;75.65;99488.27;1706208;84;20975;-39
2022/01/07 02:04:22;;;;;;;23.05;9.03;;;;;;;-2.73;75.78;99493.86;1706177;84;21006;-41
2022/01/07 02:06:49;;;;;;;28.57;10.10;;;;;;;-2.74;75.80;99495.14;1706366;84;20998;-38
2022/01/07 02:09:15;;;;;;;24.63;9.25;;;;;;;-2.76;75.85;99493.00;1706327;84;21033;-41
2022/01/07 02:11:41;;;;;;;20.43;8.53;;;;;;;-2.84;76.07;99499.83;1706218;84;20971;-38
2022/01/07 02:14:07;;;;;;;21.77;9.05;;;;;;;-2.83;76.14;99497.27;1706136;84;21452;-38
2022/01/07 02:16:33;;;;;;;26.80;8.70;;;;;;;-2.83;76.25;99497.70;1706191;84;21457;-38
2022/01/07 02:18:59;;;;;;;24.02;9.63;;;;;;;-2.79;76.17;99491.27;1706129;84;21058;-40
2022/01/07 02:21:26;;;;;;;25.27;9.43;;;;;;;-2.81;76.35;99490.41;1706190;84;20990;-41
2022/01/07 02:23:52;;;;;;;25.60;9.83;;;;;;;-2.85;76.27;99498.98;1706175;84;20978;-40
2022/01/07 02:26:19;;;;;;;21.12;9.50;;;;;;;-2.86;76.32;99496.40;1706140;84;21043;-41
2022/01/07 02:28:49;;;;;;;23.02;9.53;;;;;;;-2.84;76.38;99499.39;1706297;84;21006;-42
2022/01/07 02:31:14;;;;;;;24.43;9.73;;;;;;;-2.87;76.28;99494.27;1706101;84;20982;-41
2022/01/07 02:33:40;;;;;;;22.35;8.53;;;;;;;-2.85;76.38;99491.27;1706137;84;20983;-40
2022/01/07 02:36:10;;;;;;;22.00;9.45;;;;;;;-2.86;76.46;99492.10;1706113;84;21050;-41
2022/01/07 02:38:37;;;;;;;23.73;8.73;;;;;;;-2.86;76.27;99495.11;1706135;84;21038;-42
2022/01/07 02:43:26;;;;;;;24.25;9.15;;;;;;;-2.87;76.47;99483.09;1800497;79;24154;-41
2022/01/07 02:45:51;;;;;;;22.00;8.83;;;;;;;-2.93;76.65;99481.36;1760689;81;21137;-39
2022/01/07 02:48:17;;;;;;;26.02;9.45;;;;;;;-2.89;76.71;99486.97;1760697;80;21097;-39
2022/01/07 02:50:43;;;;;;;19.48;8.25;;;;;;;-2.84;76.74;99486.52;1761774;80;21003;-38
2022/01/07 02:53:11;;;;;;;19.10;7.80;;;;;;;-2.87;76.31;99490.41;1761868;80;21015;-39
2022/01/07 02:55:39;;;;;;;22.58;8.43;;;;;;;-2.89;77.01;99494.69;1761611;81;20968;-40
2022/01/07 02:58:06;;;;;;;22.25;8.68;;;;;;;-2.93;76.97;99495.52;1761863;80;20967;-41
2022/01/07 03:00:32;;;;;;;21.57;8.75;;;;;;;-2.96;77.18;99492.95;1762016;81;21633;-40
2022/01/07 03:03:00;;;;;;;19.40;8.03;;;;;;;-2.95;76.84;99494.66;1762031;81;20999;-40
2022/01/07 03:05:27;;;;;;;18.73;8.58;;;;;;;-2.98;76.80;99490.37;1761883;81;21464;-38
2022/01/07 03:07:53;;;;;;;20.65;9.00;;;;;;;-2.98;76.91;99487.80;1761877;81;20999;-39
2022/01/07 03:10:26;;;;;;;24.85;8.30;;;;;;;-3.01;76.96;99491.64;1761848;81;21030;-39
2022/01/07 03:12:53;;;;;;;22.52;8.30;;;;;;;-2.98;76.87;99494.67;1761529;80;21051;-38
2022/01/07 03:15:18;;;;;;;;;;;;;;;-3.04;76.74;99486.48;1764494;81;20983;-39
2022/01/07 03:17:44;;;;;;;21.60;8.93;;;;;;;-3.17;77.36;99488.16;1761840;80;20100;-42
2022/01/07 03:20:15;;;;;;;21.95;8.58;;;;;;;-3.14;77.67;99488.17;1761934;80;20991;-40
2022/01/07 03:22:43;;;;;;;23.75;9.03;;;;;;;-3.10;77.24;99486.03;1761891;80;20999;-40
2022/01/07 03:25:10;;;;;;;22.87;9.35;;;;;;;-3.05;77.17;99488.64;1761841;80;20986;-38
2022/01/07 12:26:24;;;;;;;12.35;5.30;;;;;;;1.31;58.47;99337.14;1791080;78;23032;-42
2022/01/07 12:28:50;;;;;;;14.18;5.70;;;;;;;1.32;58.75;99329.80;1760766;80;21014;-42
2022/01/07 12:31:15;;;;;;;18.12;5.80;;;;;;;1.32;58.59;99331.94;1761040;81;21500;-42
2022/01/07 12:33:51;;;;;;;11.33;5.12;;;;;;;1.35;58.85;99312.91;1761212;81;21584;-43
2022/01/07 12:36:28;;;;;;;13.05;5.58;;;;;;;1.32;58.23;99317.69;1730067;81;21657;-43
2022/01/07 12:39:03;;;;;;;12.18;5.58;;;;;;;1.38;58.38;99316.72;1761588;81;21006;-43
2022/01/07 12:41:29;;;;;;;11.25;5.70;;;;;;;1.41;58.19;99320.56;1761190;81;21048;-44
2022/01/07 12:44:13;;;;;;;16.48;6.42;;;;;;;1.53;59.31;99320.80;1760988;81;20982;-42
2022/01/07 12:46:41;;;;;;;13.80;5.05;;;;;;;1.42;58.72;99318.40;1761073;81;21520;-43
2022/01/07 12:49:08;;;;;;;14.78;5.90;;;;;;;1.39;58.08;99306.78;1760939;81;20997;-42
2022/01/07 12:51:35;;;;;;;14.75;5.30;;;;;;;1.44;58.46;99308.86;1761029;81;21633;-42
2022/01/07 12:54:08;;;;;;;13.20;5.62;;;;;;;1.39;57.01;99308.08;1761444;81;20986;-42
2022/01/07 12:56:39;;;;;;;10.75;5.25;;;;;;;1.45;57.31;99300.18;1761044;81;20998;-42
2022/01/07 12:59:18;;;;;;;13.43;5.05;;;;;;;1.44;55.88;99297.64;1760767;81;21084;-43
2022/01/07 13:01:46;;;;;;;14.98;5.45;;;;;;;1.46;57.49;99296.72;1761237;81;20994;-41
2022/01/07 13:04:16;;;;;;;16.65;5.95;;;;;;;1.45;57.10;99292.41;1761014;81;20986;-42
2022/01/07 13:06:47;;;;;;;13.58;5.78;;;;;;;1.46;57.78;99291.54;1760680;79;21339;-42
2022/01/07 13:09:22;;;;;;;18.05;6.53;;;;;;;1.43;57.45;99288.99;1780560;79;21011;-43
2022/01/07 13:11:50;;;;;;;14.98;7.05;;;;;;;1.49;58.47;99285.02;1781601;79;21513;-43
2022/01/07 13:14:20;;;;;;;15.35;6.12;;;;;;;1.46;57.81;99279.88;1773890;79;21066;-43
2022/01/07 13:16:58;;;;;;;16.02;7.25;;;;;;;1.47;57.74;99276.84;1768816;79;20951;-42
2022/01/07 13:19:24;;;;;;;15.63;6.83;;;;;;;1.41;57.25;99284.28;1769140;79;21504;-42
2022/01/07 13:21:53;;;;;;;19.25;7.42;;;;;;;1.37;57.07;99277.91;1766997;79;21496;-43
2022/01/07 13:24:23;;;;;;;17.37;7.40;;;;;;;1.44;58.27;99279.05;1773951;79;20998;-44
2022/01/07 13:26:56;;;;;;;16.80;7.62;;;;;;;1.40;57.31;99272.65;1761082;80;20960;-44
2022/01/07 13:29:27;;;;;;;16.95;6.67;;;;;;;1.48;58.82;99269.48;1759391;80;21025;-43
2022/01/07 13:32:03;;;;;;;21.70;7.37;;;;;;;1.41;58.44;99264.85;1755142;80;20988;-43
2022/01/07 13:34:37;;;;;;;14.73;7.17;;;;;;;1.43;58.86;99260.48;1763497;80;20994;-44
2022/01/07 13:37:06;;;;;;;18.05;7.60;;;;;;;1.47;58.61;99262.13;1761246;80;20978;-46
2022/01/07 13:39:43;;;;;;;20.02;8.85;;;;;;;1.49;59.00;99262.11;1752224;80;20979;-46
2022/01/07 13:42:11;;;;;;;15.43;7.27;;;;;;;1.48;58.00;99260.42;1761527;80;20980;-44
2022/01/07 13:44:53;;;;;;;18.42;7.67;;;;;;;1.47;58.46;99261.29;1755573;80;20988;-43
2022/01/07 13:47:31;;;;;;;20.08;8.05;;;;;;;1.51;59.18;99253.44;1765103;80;21444;-44
2022/01/07 13:50:13;;;;;;;21.12;8.65;;;;;;;1.45;58.53;99246.22;1752146;80;21515;-43
2022/01/07 13:52:39;;;;;;;17.45;7.83;;;;;;;1.49;59.35;99244.84;1752415;80;21016;-44
2022/01/07 13:55:08;;;;;;;15.40;7.92;;;;;;;1.38;58.83;99240.73;1758766;80;20991;-43
2022/01/07 13:57:34;;;;;;;22.67;8.53;;;;;;;1.38;58.83;99240.73;1762308;80;20995;-46
2022/01/07 14:00:01;;;;;;;18.85;8.93;;;;;;;1.47;59.86;99246.59;1767886;80;21007;-44
2022/01/07 14:02:31;;;;;;;18.20;9.43;;;;;;;1.42;59.30;99251.03;1778248;81;21026;-44
2022/01/07 14:05:15;;;;;;;18.73;9.73;;;;;;;1.40;59.64;99246.31;1778155;81;21030;-43
2022/01/07 14:07:51;;;;;;;20.60;8.53;;;;;;;1.34;59.27;99247.70;1777903;81;20999;-42
2022/01/07 14:10:32;;;;;;;23.62;8.55;;;;;;;1.31;59.61;99240.86;1778137;81;21006;-44
2022/01/07 14:13:17;;;;;;;15.72;8.50;;;;;;;1.17;59.23;99238.11;1778210;81;21564;-42
2022/01/07 14:15:53;;;;;;;21.20;8.58;;;;;;;1.19;59.79;99241.52;1777957;81;21014;-43
2022/01/07 14:18:25;;;;;;;18.73;8.35;;;;;;;1.22;59.92;99239.73;1778017;81;20983;-43
2022/01/07 14:21:00;;;;;;;18.37;8.55;;;;;;;1.22;60.00;99238.86;1777057;81;20987;-43
2022/01/07 14:23:30;;;;;;;21.52;10.03;;;;;;;1.03;59.71;99236.59;1778067;81;20984;-43
2022/01/07 14:26:08;;;;;;;23.60;10.82;;;;;;;1.05;59.94;99245.19;1772126;80;21016;-42
2022/01/07 14:28:39;;;;;;;32.33;13.18;;;;;;;1.00;60.13;99234.09;1770979;81;21038;-42
2022/01/07 14:31:05;;;;;;;34.75;13.10;;;;;;;0.97;60.68;99239.75;1771171;81;20976;-42
2022/01/07 14:33:31;;;;;;;33.83;14.78;;;;;;;0.97;61.05;99233.28;1771284;81;20984;-45
2022/01/07 14:35:57;;;;;;;32.17;13.75;;;;;;;0.89;60.86;99234.69;1771114;81;21537;-43
2022/01/07 14:38:25;;;;;;;34.15;15.25;;;;;;;0.90;60.99;99240.29;1771142;80;21596;-43
2022/01/07 14:40:51;;;;;;;36.60;15.72;;;;;;;0.90;61.29;99240.29;1771107;81;21023;-39
2022/01/07 14:43:17;;;;;;;37.63;15.65;;;;;;;0.88;61.38;99242.05;1771085;81;20999;-43
2022/01/07 14:45:44;;;;;;;43.52;19.45;;;;;;;0.78;61.41;99236.60;1771285;81;21588;-43
2022/01/07 14:48:10;;;;;;;37.25;18.45;;;;;;;0.78;61.45;99243.08;1771140;81;21000;-42
2022/01/07 14:50:36;;;;;;;41.85;18.98;;;;;;;0.72;61.28;99249.20;1770998;81;20999;-42
2022/01/07 14:53:02;;;;;;;35.55;15.63;;;;;;;0.70;61.66;99249.67;1771182;81;20979;-41
2022/01/07 14:55:34;;;;;;;37.83;16.50;;;;;;;0.74;61.55;99248.74;1771117;81;21019;-41
2022/01/07 14:57:56;;;;;;;;;;;;;;;0.64;61.79;99250.63;1772619;81;20980;-43
2022/01/07 15:00:23;;;;;;;40.28;16.65;;;;;;;0.62;61.64;99253.69;1771289;81;20148;-44
2022/01/07 15:02:49;;;;;;;35.08;15.98;;;;;;;0.62;62.06;99248.52;1771010;81;20999;-44
2022/01/07 15:05:15;;;;;;;39.08;16.05;;;;;;;0.62;62.10;99256.27;1770974;80;20992;-42
2022/01/07 15:07:41;;;;;;;33.40;14.95;;;;;;;0.62;61.89;99258.86;1770952;81;20972;-41
2022/01/07 15:10:10;;;;;;;44.63;17.17;;;;;;;0.54;62.08;99259.41;1770881;81;21000;-42
2022/01/07 15:12:42;;;;;;;38.08;15.65;;;;;;;0.42;61.51;99251.81;1771037;81;21000;-41
2022/01/07 15:17:49;;;;;;;33.67;16.97;;;;;;;0.47;62.03;99244.84;1771486;81;20979;-41
2022/01/07 15:20:16;;;;;;;31.65;12.98;;;;;;;0.44;62.25;99239.70;1771688;81;21031;-42
2022/01/07 15:22:42;;;;;;;35.92;14.68;;;;;;;0.44;62.16;99244.88;1771586;80;21469;-43
2022/01/07 15:25:09;;;;;;;40.30;16.27;;;;;;;0.43;62.10;99244.03;1772551;80;21035;-41
2022/01/07 15:27:35;;;;;;;32.53;15.58;;;;;;;0.38;62.27;99236.36;1778892;81;21357;-43
2022/01/07 15:30:04;;;;;;;35.70;15.58;;;;;;;0.37;62.42;99235.94;1778722;81;21396;-42
2022/01/07 15:32:29;;;;;;;35.30;14.15;;;;;;;0.32;62.26;99233.84;1778433;80;20976;-41
2022/01/07 15:34:54;;;;;;;32.65;14.30;;;;;;;0.35;62.14;99231.22;1778760;81;20967;-42
2022/01/07 15:37:20;;;;;;;36.30;14.58;;;;;;;0.36;62.41;99227.77;1778799;80;20980;-43
2022/01/07 15:39:46;;;;;;;41.68;16.05;;;;;;;0.35;63.03;99228.64;1776229;81;21011;-45
2022/01/07 15:42:12;;;;;;;38.40;16.50;;;;;;;0.35;63.18;99232.52;1768668;81;20995;-43
2022/01/07 15:44:38;;;;;;;37.00;16.55;;;;;;;0.34;62.91;99224.33;1768690;81;20980;-41
2022/01/07 15:47:04;;;;;;;45.83;17.87;;;;;;;0.36;62.59;99221.72;1768711;81;21032;-42
2022/01/07 15:49:30;;;;;;;39.65;16.95;;;;;;;0.29;62.52;99224.86;1768687;81;21007;-44
2022/01/07 15:51:56;;;;;;;45.20;20.10;;;;;;;0.22;62.70;99218.06;1768655;81;21004;-42
2022/01/07 15:54:21;;;;;;;49.13;20.10;;;;;;;0.30;62.85;99216.66;1768728;81;20976;-43
2022/01/07 15:56:47;;;;;;;47.03;18.23;;;;;;;0.28;62.88;99217.97;1768779;81;20995;-42
2022/01/07 15:59:13;;;;;;;37.80;18.15;;;;;;;0.19;63.21;99218.09;1768692;81;20968;-42
2022/01/07 16:01:39;;;;;;;42.93;17.98;;;;;;;0.23;63.21;99213.30;1768711;81;20995;-40
2022/01/07 16:04:05;;;;;;;33.95;15.95;;;;;;;0.23;63.09;99218.47;1768723;80;20964;-42
2022/01/07 16:06:30;;;;;;;36.77;16.55;;;;;;;0.27;63.26;99216.23;1768683;81;21004;-42
2022/01/07 16:08:56;;;;;;;40.58;18.65;;;;;;;0.28;63.17;99221.84;1768778;81;20995;-42
2022/01/07 16:11:22;;;;;;;46.48;20.43;;;;;;;0.25;62.87;99219.73;1768753;81;21467;-43
2022/01/07 16:13:48;;;;;;;41.68;17.42;;;;;;;0.23;62.44;99214.58;1768767;81;20992;-43
2022/01/07 16:16:14;;;;;;;44.27;18.55;;;;;;;0.27;62.79;99215.39;1768756;81;20952;-42
2022/01/07 16:18:41;;;;;;;52.38;21.45;;;;;;;0.22;62.37;99213.31;1768697;81;20999;-42
2022/01/07 16:21:08;;;;;;;45.65;19.73;;;;;;;0.23;62.62;99210.70;1768819;81;20960;-41
2022/01/07 16:23:34;;;;;;;46.58;19.75;;;;;;;0.24;62.69;99206.38;1768797;81;21600;-44
2022/01/07 16:26:01;;;;;;;47.17;19.60;;;;;;;0.25;62.24;99206.36;1769780;81;21004;-41
2022/01/07 16:28:27;;;;;;;44.27;21.75;;;;;;;0.24;62.12;99208.96;1771807;81;21552;-41
2022/01/07 16:30:53;;;;;;;49.98;17.80;;;;;;;0.21;62.64;99205.16;1771720;81;21007;-41
2022/01/07 16:33:19;;;;;;;54.27;21.35;;;;;;;0.27;62.64;99212.36;1771657;81;20995;-45
2022/01/07 16:35:48;;;;;;;50.63;20.08;;;;;;;0.24;62.62;99207.67;1771674;81;20992;-43
2022/01/07 16:38:15;;;;;;;47.78;17.57;;;;;;;0.24;62.53;99207.26;1771794;81;20998;-42
2022/01/07 16:40:41;;;;;;;50.65;22.22;;;;;;;0.24;62.86;99195.62;1771835;81;21007;-44
2022/01/07 16:43:07;;;;;;;47.53;18.10;;;;;;;0.27;62.56;99200.72;1771734;81;21023;-43
2022/01/07 16:45:33;;;;;;;40.88;17.17;;;;;;;0.27;62.16;99198.13;1771666;81;21493;-42
2022/01/07 16:47:59;;;;;;;45.15;17.37;;;;;;;0.28;62.30;99193.84;1771658;81;21469;-42
2022/01/07 16:50:25;;;;;;;38.10;17.95;;;;;;;0.22;61.66;99196.08;1771940;80;20988;-44
2022/01/07 16:52:52;;;;;;;43.15;17.60;;;;;;;0.27;62.37;99199.88;1771668;81;20991;-41
2022/01/07 16:55:18;;;;;;;39.15;17.23;;;;;;;0.27;61.66;99205.89;1771711;81;20991;-44
2022/01/07 16:57:47;;;;;;;38.33;16.17;;;;;;;0.27;61.69;99198.13;1771682;81;21023;-43
2022/01/07 17:00:15;;;;;;;44.58;17.17;;;;;;;0.24;61.05;99194.33;1771021;81;20988;-43
2022/01/07 17:02:40;;;;;;;43.40;17.62;;;;;;;0.22;60.92;99193.50;1771647;81;21003;-44
2022/01/07 17:05:07;;;;;;;39.33;16.55;;;;;;;0.25;61.69;99192.13;1771754;80;21000;-41
2022/01/07 17:07:38;;;;;;;42.75;16.05;;;;;;;0.22;61.13;99192.20;1771804;81;20988;-42
2022/01/07 17:10:05;;;;;;;40.70;16.65;;;;;;;0.25;60.82;99184.83;1771306;81;21002;-42
2022/01/07 17:12:33;;;;;;;48.63;18.90;;;;;;;0.20;60.60;99187.50;1771873;81;20988;-43
2022/01/07 17:15:00;;;;;;;44.58;17.75;;;;;;;0.24;60.85;99193.45;1771840;80;20984;-44
2022/01/07 17:17:26;;;;;;;44.87;17.63;;;;;;;0.20;59.75;99190.08;1772098;81;20991;-43
2022/01/07 17:19:52;;;;;;;46.60;17.92;;;;;;;0.13;59.30;99189.31;1772015;81;20976;-44
2022/01/07 17:22:18;;;;;;;51.23;21.57;;;;;;;0.14;60.44;99185.83;1771808;81;21003;-41
2022/01/07 17:24:44;;;;;;;42.17;17.75;;;;;;;0.09;60.06;99182.48;1771775;81;21020;-44
2022/01/07 17:27:12;;;;;;;47.08;20.35;;;;;;;0.09;60.50;99182.48;1769363;81;21020;-42
2022/01/07 17:29:38;;;;;;;40.83;18.02;;;;;;;0.02;59.85;99179.56;1768704;81;21414;-42
2022/01/07 17:32:05;;;;;;;35.50;15.03;;;;;;;0.03;59.84;99177.37;1768741;81;20991;-42
2022/01/07 17:34:31;;;;;;;45.92;16.12;;;;;;;0.10;60.70;99174.27;1768814;81;20987;-43
2022/01/07 17:36:57;;;;;;;35.73;15.20;;;;;;;0.09;59.97;99174.72;1769196;81;21543;-43
2022/01/07 17:39:23;;;;;;;40.25;18.45;;;;;;;0.07;59.28;99175.16;1768850;81;20969;-43
2022/01/07 17:41:50;;;;;;;38.28;15.03;;;;;;;0.09;59.63;99172.55;1768831;81;20968;-42
2022/01/07 17:44:17;;;;;;;35.03;14.30;;;;;;;0.07;59.51;99173.02;1768875;80;21023;-42
2022/01/07 17:46:43;;;;;;;46.27;16.73;;;;;;;0.03;58.72;99170.07;1769062;81;20992;-43
2022/01/07 17:49:10;;;;;;;49.25;16.30;;;;;;;0.02;58.91;99170.52;1768867;81;21015;-42
2022/01/07 17:51:36;;;;;;;42.78;14.43;;;;;;;-0.02;58.59;99168.41;1769102;81;21034;-42
2022/01/07 17:54:01;;;;;;;37.42;13.78;;;;;;;-0.01;58.29;99166.23;1768733;81;21007;-43
2022/01/07 17:56:27;;;;;;;43.75;15.53;;;;;;;0.04;58.74;99163.59;1768827;81;21028;-43
2022/01/07 17:58:53;;;;;;;39.78;15.28;;;;;;;-0.06;57.25;99162.84;1768758;81;21027;-42
2022/01/07 18:01:19;;;;;;;39.18;15.48;;;;;;;-0.02;58.44;99164.53;1768764;81;20960;-42
2022/01/07 18:03:45;;;;;;;35.35;15.10;;;;;;;0.05;59.38;99162.69;1768741;81;20980;-44
2022/01/07 18:06:10;;;;;;;42.25;17.73;;;;;;;0.02;58.82;99162.76;1768769;81;21037;-46
2022/01/07 18:08:36;;;;;;;30.08;12.85;;;;;;;-0.02;58.33;99158.07;1768801;81;21000;-43
2022/01/07 18:11:02;;;;;;;30.02;12.25;;;;;;;-0.01;58.16;99160.20;1768789;81;20980;-42
2022/01/07 18:13:28;;;;;;;33.65;14.33;;;;;;;-0.04;57.17;99157.25;1768736;81;21481;-43
2022/01/07 18:15:54;;;;;;;35.43;13.80;;;;;;;-0.02;58.11;99149.02;1768862;81;21445;-41
2022/01/07 18:18:20;;;;;;;37.83;13.90;;;;;;;-0.08;56.46;99149.54;1768885;81;21035;-41
2022/01/07 18:20:45;;;;;;;42.00;16.75;;;;;;;-0.03;58.09;99149.04;1768720;81;20981;-43
2022/01/07 18:23:12;;;;;;;38.20;15.90;;;;;;;-0.02;58.31;99142.56;1768771;81;20995;-41
2022/01/07 18:25:40;;;;;;;49.00;19.52;;;;;;;-0.09;56.76;99143.52;1768768;81;21866;-41
2022/01/07 18:28:08;;;;;;;39.73;15.55;;;;;;;-0.14;56.77;99144.02;1768729;81;21007;-41
2022/01/07 18:30:35;;;;;;;40.60;14.73;;;;;;;-0.23;56.88;99145.00;1768310;81;20991;-42
2022/01/07 18:33:00;;;;;;;32.38;12.65;;;;;;;-0.18;57.38;99140.20;1768930;81;21008;-42
2022/01/07 18:35:26;;;;;;;32.38;13.08;;;;;;;-0.14;57.47;99142.73;1768759;81;20964;-41
2022/01/07 18:37:52;;;;;;;51.40;17.75;;;;;;;-0.15;57.15;99140.16;1768790;81;20960;-42
2022/01/07 18:40:18;;;;;;;38.85;15.40;;;;;;;-0.12;57.18;99142.27;1768784;81;21003;-41
2022/01/07 18:42:44;;;;;;;35.13;15.28;;;;;;;-0.17;56.27;99139.34;1768733;80;21860;-46
2022/01/07 18:45:10;;;;;;;40.95;14.73;;;;;;;-0.19;56.18;99139.35;1768833;81;20992;-43
2022/01/07 18:47:36;;;;;;;34.60;13.72;;;;;;;-0.21;56.12;99128.19;1768770;81;20992;-42
2022/01/07 18:50:03;;;;;;;35.78;12.80;;;;;;;-0.24;54.98;99135.97;1768929;81;21576;-45
2022/01/07 18:52:29;;;;;;;29.02;12.10;;;;;;;-0.24;56.07;99131.68;1768997;81;20992;-43
2022/01/07 18:54:55;;;;;;;32.98;12.45;;;;;;;-0.26;54.85;99130.82;1768766;81;21004;-44
2022/01/07 18:57:21;;;;;;;39.03;12.65;;;;;;;-0.28;54.40;99120.95;1768658;81;21058;-41
2022/01/07 18:59:46;;;;;;;27.77;13.13;;;;;;;-0.29;54.21;99118.38;1768779;81;21003;-43
2022/01/07 19:02:12;;;;;;;46.30;15.55;;;;;;;-0.29;55.03;99118.38;1768753;81;21007;-43
2022/01/07 19:04:38;;;;;;;54.33;21.45;;;;;;;-0.25;54.53;99115.74;1768832;81;21011;-44
2022/01/07 19:07:07;;;;;;;40.30;18.55;;;;;;;-0.24;54.47;99120.05;1768766;81;21473;-43
2022/01/07 19:09:33;;;;;;;37.60;14.38;;;;;;;-0.24;54.83;99119.17;1768035;81;20984;-45
2022/01/07 19:11:59;;;;;;;35.90;14.85;;;;;;;-0.23;54.51;99119.16;1768697;81;21422;-43
2022/01/07 19:14:25;;;;;;;47.23;16.87;;;;;;;-0.22;54.68;99118.30;1768698;81;20992;-42
2022/01/07 19:16:51;;;;;;;41.60;16.05;;;;;;;-0.26;52.93;99123.52;1774826;81;20964;-42
2022/01/07 19:19:17;;;;;;;29.40;12.05;;;;;;;-0.31;53.47;99116.26;1768780;81;20983;-41
2022/01/07 19:21:43;;;;;;;33.15;13.13;;;;;;;-0.29;53.56;99117.09;1768817;81;21493;-42
2022/01/07 19:24:09;;;;;;;33.73;11.03;;;;;;;-0.31;51.83;99112.38;1768674;81;21414;-43
2022/01/07 19:26:36;;;;;;;25.57;10.45;;;;;;;-0.34;51.79;99105.55;1768713;80;21577;-41
2022/01/07 19:29:03;;;;;;;30.70;10.58;;;;;;;-0.27;54.22;99111.48;1768924;81;21512;-42
2022/01/07 19:31:29;;;;;;;21.87;9.10;;;;;;;-0.28;54.13;99108.47;1768888;81;21027;-43
2022/01/07 19:33:54;;;;;;;27.85;10.88;;;;;;;-0.26;52.88;99110.59;1768714;81;21035;-43
2022/01/07 19:36:20;;;;;;;31.35;11.03;;;;;;;-0.28;54.07;99108.47;1768758;81;20992;-44
2022/01/07 19:38:46;;;;;;;23.70;10.23;;;;;;;-0.28;52.72;99108.47;1768680;81;20984;-44
2022/01/07 19:41:12;;;;;;;27.82;10.88;;;;;;;-0.33;51.47;99109.81;1768736;81;20988;-43
2022/01/07 19:43:38;;;;;;;30.50;10.58;;;;;;;-0.29;52.67;99110.63;1768788;81;21023;-43
2022/01/07 19:46:05;;;;;;;25.17;9.60;;;;;;;-0.29;52.50;99105.45;1768660;81;21545;-42
2022/01/07 19:48:31;;;;;;;25.53;8.73;;;;;;;-0.32;51.84;99108.95;1767875;81;21043;-45
2022/01/07 19:50:58;;;;;;;27.22;10.20;;;;;;;-0.28;52.49;99109.31;1768619;81;21004;-44
2022/01/07 19:53:24;;;;;;;20.70;8.68;;;;;;;-0.22;53.29;99108.38;1768701;81;21028;-42
2022/01/07 19:55:50;;;;;;;34.98;11.60;;;;;;;-0.30;51.43;99104.61;1768725;81;21066;-43
2022/01/07 19:58:15;;;;;;;23.27;9.50;;;;;;;-0.30;51.37;99106.36;1768641;81;20983;-43
2022/01/07 20:00:41;;;;;;;32.85;12.00;;;;;;;-0.26;52.99;99110.59;1768677;81;21469;-44
2022/01/07 20:03:07;;;;;;;21.55;9.68;;;;;;;-0.23;53.04;99104.10;1768675;81;21619;-42
2022/01/07 20:05:33;;;;;;;22.73;10.23;;;;;;;-0.23;52.85;99107.53;1768658;81;20980;-43
2022/01/07 20:07:59;;;;;;;23.00;9.85;;;;;;;-0.23;52.40;99102.80;1768626;81;21520;-44
2022/01/07 20:10:26;;;;;;;23.30;8.60;;;;;;;-0.30;51.20;99097.31;1768714;81;20991;-44
2022/01/07 20:12:51;;;;;;;28.87;8.95;;;;;;;-0.30;51.20;99097.31;1768686;81;21441;-42
2022/01/07 20:15:18;;;;;;;29.85;11.68;;;;;;;-0.35;51.33;99097.81;1768622;81;21477;-42
2022/01/07 20:17:47;;;;;;;36.95;14.23;;;;;;;-0.25;51.49;99101.53;1768769;81;20984;-45
2022/01/07 20:20:15;;;;;;;29.15;11.95;;;;;;;-0.24;51.92;99101.96;1768624;81;21034;-43
2022/01/07 20:22:41;;;;;;;29.37;11.15;;;;;;;-0.23;52.07;99092.47;1768538;81;21019;-44
2022/01/07 20:25:09;;;;;;;29.18;10.58;;;;;;;-0.22;51.55;99098.91;1768591;81;21023;-44
2022/01/07 20:27:35;;;;;;;;;;;;;;;-0.20;52.12;99094.98;1774470;81;20985;-42
2022/01/07 20:30:04;;;;;;;24.43;9.97;;;;;;;-0.26;50.50;99086.05;1774351;81;20104;-43
2022/01/07 20:32:30;;;;;;;22.60;9.48;;;;;;;-0.31;51.84;99092.59;1774053;80;21027;-42